sensor_id;sensor_type;location;lat;lon;timestamp;pressure;altitude;pressure_sealevel;temperature;humidity
71504;BME280;59323;50.874;7.028;2023-04-28T00:01:26;100916.84;;;12.06;61.81
71504;BME280;59323;50.874;7.028;2023-04-28T00:03:51;100920.78;;;12.09;62.22
71504;BME280;59323;50.874;7.028;2023-04-28T00:06:17;100909.88;;;12.09;62.03
71504;BME280;59323;50.874;7.028;2023-04-28T00:08:43;100898.94;;;12.05;62.37
71504;BME280;59323;50.874;7.028;2023-04-28T00:11:11;100902.84;;;12.07;61.64
71504;BME280;59323;50.874;7.028;2023-04-28T00:13:37;100904.00;;;12.06;61.26
71504;BME280;59323;50.874;7.028;2023-04-28T00:16:06;100895.34;;;11.97;61.34
71504;BME280;59323;50.874;7.028;2023-04-28T00:18:31;100895.66;;;11.92;62.07
71504;BME280;59323;50.874;7.028;2023-04-28T00:20:58;100907.06;;;12.01;61.00
71504;BME280;59323;50.874;7.028;2023-04-28T00:23:23;100904.66;;;11.96;61.72
71504;BME280;59323;50.874;7.028;2023-04-28T00:25:52;100901.63;;;12.01;61.11
71504;BME280;59323;50.874;7.028;2023-04-28T00:28:17;100900.78;;;11.97;61.23
71504;BME280;59323;50.874;7.028;2023-04-28T00:30:43;100902.69;;;11.93;61.13
71504;BME280;59323;50.874;7.028;2023-04-28T00:33:08;100892.09;;;11.88;61.86
71504;BME280;59323;50.874;7.028;2023-04-28T00:35:34;100885.41;;;11.82;62.95
71504;BME280;59323;50.874;7.028;2023-04-28T00:37:59;100874.56;;;11.86;62.54
71504;BME280;59323;50.874;7.028;2023-04-28T00:40:37;100862.84;;;11.82;62.79
71504;BME280;59323;50.874;7.028;2023-04-28T00:43:23;100865.56;;;11.82;62.46
71504;BME280;59323;50.874;7.028;2023-04-28T00:45:49;100862.47;;;11.83;63.39
71504;BME280;59323;50.874;7.028;2023-04-28T00:48:16;100851.59;;;11.83;64.11
71504;BME280;59323;50.874;7.028;2023-04-28T00:50:42;100856.34;;;11.90;64.22
71504;BME280;59323;50.874;7.028;2023-04-28T00:53:09;100861.75;;;11.86;64.42
71504;BME280;59323;50.874;7.028;2023-04-28T00:55:36;100855.47;;;11.82;65.03
71504;BME280;59323;50.874;7.028;2023-04-28T00:58:03;100857.28;;;11.74;64.73
71504;BME280;59323;50.874;7.028;2023-04-28T01:00:28;100852.63;;;11.75;64.78
71504;BME280;59323;50.874;7.028;2023-04-28T01:02:58;100849.84;;;11.71;65.83
71504;BME280;59323;50.874;7.028;2023-04-28T01:05:24;100841.56;;;11.64;65.95
71504;BME280;59323;50.874;7.028;2023-04-28T01:07:51;100837.69;;;11.65;65.63
71504;BME280;59323;50.874;7.028;2023-04-28T01:10:16;100835.47;;;11.71;65.38
71504;BME280;59323;50.874;7.028;2023-04-28T01:12:42;100837.69;;;11.65;65.52
71504;BME280;59323;50.874;7.028;2023-04-28T01:15:18;100840.91;;;11.71;66.09
71504;BME280;59323;50.874;7.028;2023-04-28T01:17:45;100851.72;;;11.67;66.34
71504;BME280;59323;50.874;7.028;2023-04-28T01:20:11;100848.53;;;11.62;66.55
71504;BME280;59323;50.874;7.028;2023-04-28T01:22:36;100845.47;;;11.67;66.62
71504;BME280;59323;50.874;7.028;2023-04-28T01:25:02;100839.53;;;11.58;67.69
71504;BME280;59323;50.874;7.028;2023-04-28T01:27:28;100840.31;;;11.58;67.94
71504;BME280;59323;50.874;7.028;2023-04-28T01:29:53;100843.00;;;11.55;67.71
71504;BME280;59323;50.874;7.028;2023-04-28T01:32:18;100849.53;;;11.50;68.51
71504;BME280;59323;50.874;7.028;2023-04-28T01:34:44;100848.38;;;11.51;69.11
71504;BME280;59323;50.874;7.028;2023-04-28T01:37:09;100842.88;;;11.48;70.23
71504;BME280;59323;50.874;7.028;2023-04-28T01:39:35;100828.34;;;11.36;69.80
71504;BME280;59323;50.874;7.028;2023-04-28T01:42:00;100829.50;;;11.35;70.58
71504;BME280;59323;50.874;7.028;2023-04-28T01:44:26;100834.09;;;11.31;70.82
71504;BME280;59323;50.874;7.028;2023-04-28T01:46:52;100841.13;;;11.32;71.28
71504;BME280;59323;50.874;7.028;2023-04-28T01:49:17;100825.53;;;11.29;71.82
71504;BME280;59323;50.874;7.028;2023-04-28T01:51:55;100812.66;;;11.26;71.57
71504;BME280;59323;50.874;7.028;2023-04-28T01:54:20;100823.97;;;11.28;71.83
71504;BME280;59323;50.874;7.028;2023-04-28T01:57:04;100830.44;;;11.20;72.56
71504;BME280;59323;50.874;7.028;2023-04-28T01:59:30;100827.31;;;11.18;72.85
71504;BME280;59323;50.874;7.028;2023-04-28T02:01:55;100832.31;;;11.16;72.48
71504;BME280;59323;50.874;7.028;2023-04-28T02:04:20;100829.59;;;11.16;73.09
71504;BME280;59323;50.874;7.028;2023-04-28T02:06:46;100823.66;;;11.07;72.21
71504;BME280;59323;50.874;7.028;2023-04-28T02:09:11;100831.00;;;11.06;73.11
71504;BME280;59323;50.874;7.028;2023-04-28T02:11:36;100827.06;;;11.04;72.64
71504;BME280;59323;50.874;7.028;2023-04-28T02:14:02;100829.88;;;11.07;72.48
71504;BME280;59323;50.874;7.028;2023-04-28T02:16:27;100838.88;;;11.11;72.15
71504;BME280;59323;50.874;7.028;2023-04-28T02:18:52;100836.50;;;11.10;72.88
71504;BME280;59323;50.874;7.028;2023-04-28T02:21:18;100828.63;;;11.05;72.83
71504;BME280;59323;50.874;7.028;2023-04-28T02:23:43;100822.84;;;11.06;72.47
71504;BME280;59323;50.874;7.028;2023-04-28T02:26:08;100824.34;;;11.04;74.03
71504;BME280;59323;50.874;7.028;2023-04-28T02:28:34;100826.22;;;11.00;74.25
71504;BME280;59323;50.874;7.028;2023-04-28T02:31:07;100831.59;;;10.96;74.61
71504;BME280;59323;50.874;7.028;2023-04-28T02:33:33;100834.38;;;11.00;74.53
71504;BME280;59323;50.874;7.028;2023-04-28T02:35:59;100819.53;;;10.94;75.41
71504;BME280;59323;50.874;7.028;2023-04-28T02:38:25;100815.59;;;10.91;75.61
71504;BME280;59323;50.874;7.028;2023-04-28T02:41:01;100815.19;;;10.89;76.55
71504;BME280;59323;50.874;7.028;2023-04-28T02:43:29;100813.59;;;10.88;76.42
71504;BME280;59323;50.874;7.028;2023-04-28T02:45:55;100801.47;;;10.82;76.57
71504;BME280;59323;50.874;7.028;2023-04-28T02:48:21;100819.84;;;10.89;75.43
71504;BME280;59323;50.874;7.028;2023-04-28T02:50:46;100823.28;;;10.86;75.28
71504;BME280;59323;50.874;7.028;2023-04-28T02:53:12;100821.72;;;10.85;75.67
71504;BME280;59323;50.874;7.028;2023-04-28T02:55:37;100830.28;;;10.87;76.25
71504;BME280;59323;50.874;7.028;2023-04-28T02:58:03;100822.50;;;10.85;76.35
71504;BME280;59323;50.874;7.028;2023-04-28T03:00:28;100820.97;;;10.88;76.30
71504;BME280;59323;50.874;7.028;2023-04-28T03:02:54;100815.13;;;10.86;75.93
71504;BME280;59323;50.874;7.028;2023-04-28T03:05:19;100814.69;;;10.84;77.18
71504;BME280;59323;50.874;7.028;2023-04-28T03:07:45;100803.00;;;10.79;76.79
71504;BME280;59323;50.874;7.028;2023-04-28T03:10:10;100806.06;;;10.78;76.86
71504;BME280;59323;50.874;7.028;2023-04-28T03:12:36;100796.28;;;10.73;76.33
71504;BME280;59323;50.874;7.028;2023-04-28T03:15:01;100808.38;;;10.76;78.42
71504;BME280;59323;50.874;7.028;2023-04-28T03:17:27;100801.00;;;10.76;79.16
71504;BME280;59323;50.874;7.028;2023-04-28T03:19:52;100786.16;;;10.70;78.95
71504;BME280;59323;50.874;7.028;2023-04-28T03:22:17;100779.97;;;10.73;79.12
71504;BME280;59323;50.874;7.028;2023-04-28T03:24:43;100775.28;;;10.70;79.08
71504;BME280;59323;50.874;7.028;2023-04-28T03:27:08;100792.06;;;10.76;78.95
71504;BME280;59323;50.874;7.028;2023-04-28T03:29:33;100783.78;;;10.69;78.68
71504;BME280;59323;50.874;7.028;2023-04-28T03:31:59;100783.38;;;10.67;79.14
71504;BME280;59323;50.874;7.028;2023-04-28T03:34:24;100780.28;;;10.68;78.97
71504;BME280;59323;50.874;7.028;2023-04-28T03:36:49;100785.34;;;10.70;78.83
71504;BME280;59323;50.874;7.028;2023-04-28T03:39:15;100783.00;;;10.68;79.82
71504;BME280;59323;50.874;7.028;2023-04-28T03:41:40;100777.50;;;10.65;80.73
71504;BME280;59323;50.874;7.028;2023-04-28T03:44:06;100772.81;;;10.62;81.38
71504;BME280;59323;50.874;7.028;2023-04-28T03:46:31;100770.03;;;10.58;82.20
71504;BME280;59323;50.874;7.028;2023-04-28T03:48:59;100761.75;;;10.51;82.30
71504;BME280;59323;50.874;7.028;2023-04-28T03:51:26;100743.00;;;10.42;82.03
71504;BME280;59323;50.874;7.028;2023-04-28T03:53:52;100746.06;;;10.41;83.10
71504;BME280;59323;50.874;7.028;2023-04-28T03:56:17;100742.06;;;10.35;83.49
71504;BME280;59323;50.874;7.028;2023-04-28T03:58:42;100736.19;;;10.33;83.64
71504;BME280;59323;50.874;7.028;2023-04-28T04:01:08;100726.78;;;10.27;83.40
71504;BME280;59323;50.874;7.028;2023-04-28T04:03:33;100740.44;;;10.30;83.13
71504;BME280;59323;50.874;7.028;2023-04-28T04:05:59;100734.16;;;10.26;83.60
71504;BME280;59323;50.874;7.028;2023-04-28T04:08:24;100717.00;;;10.22;82.90
71504;BME280;59323;50.874;7.028;2023-04-28T04:10:50;100717.91;;;10.30;83.21
71504;BME280;59323;50.874;7.028;2023-04-28T04:13:16;100701.91;;;10.25;82.90
71504;BME280;59323;50.874;7.028;2023-04-28T04:15:42;100698.47;;;10.28;81.83
71504;BME280;59323;50.874;7.028;2023-04-28T04:18:07;100688.34;;;10.25;83.00
71504;BME280;59323;50.874;7.028;2023-04-28T04:20:32;100687.63;;;10.28;82.62
71504;BME280;59323;50.874;7.028;2023-04-28T04:22:58;100684.91;;;10.28;82.49
71504;BME280;59323;50.874;7.028;2023-04-28T04:25:26;100670.34;;;10.16;82.65
71504;BME280;59323;50.874;7.028;2023-04-28T04:27:52;100686.00;;;10.23;82.73
71504;BME280;59323;50.874;7.028;2023-04-28T04:30:17;100680.56;;;10.23;82.36
71504;BME280;59323;50.874;7.028;2023-04-28T04:32:43;100697.56;;;10.20;83.03
71504;BME280;59323;50.874;7.028;2023-04-28T04:35:08;100697.91;;;10.18;84.05
71504;BME280;59323;50.874;7.028;2023-04-28T04:37:37;100707.16;;;10.14;84.33
71504;BME280;59323;50.874;7.028;2023-04-28T05:20:29;100727.53;;;10.04;88.59
71504;BME280;59323;50.874;7.028;2023-04-28T05:22:54;100726.81;;;10.07;88.25
71504;BME280;59323;50.874;7.028;2023-04-28T05:25:20;100713.91;;;10.01;88.99
71504;BME280;59323;50.874;7.028;2023-04-28T05:27:53;100718.47;;;9.97;89.44
71504;BME280;59323;50.874;7.028;2023-04-28T05:30:18;100715.41;;;9.98;89.29
71504;BME280;59323;50.874;7.028;2023-04-28T05:32:44;100724.03;;;10.04;90.02
71504;BME280;59323;50.874;7.028;2023-04-28T05:35:09;100723.59;;;10.02;90.32
71504;BME280;59323;50.874;7.028;2023-04-28T05:37:44;100716.97;;;9.99;91.18
71504;BME280;59323;50.874;7.028;2023-04-28T05:40:09;100696.75;;;9.97;91.89
71504;BME280;59323;50.874;7.028;2023-04-28T05:42:35;100700.97;;;9.94;92.28
71504;BME280;59323;50.874;7.028;2023-04-28T05:45:06;100710.28;;;9.93;93.09
71504;BME280;59323;50.874;7.028;2023-04-28T05:47:34;100712.97;;;9.93;94.22
71504;BME280;59323;50.874;7.028;2023-04-28T05:49:59;100707.63;;;9.97;94.22
71504;BME280;59323;50.874;7.028;2023-04-28T05:52:26;100687.72;;;9.89;94.49
71504;BME280;59323;50.874;7.028;2023-04-28T05:54:56;100695.56;;;9.94;94.90
71504;BME280;59323;50.874;7.028;2023-04-28T05:57:21;100696.56;;;9.86;95.31
71504;BME280;59323;50.874;7.028;2023-04-28T05:59:47;100696.28;;;9.91;95.04
71504;BME280;59323;50.874;7.028;2023-04-28T06:02:13;100686.91;;;9.89;94.86
71504;BME280;59323;50.874;7.028;2023-04-28T06:04:38;100687.84;;;9.96;94.73
71504;BME280;59323;50.874;7.028;2023-04-28T06:07:04;100677.03;;;10.00;94.83
71504;BME280;59323;50.874;7.028;2023-04-28T06:09:30;100683.66;;;10.02;94.74
71504;BME280;59323;50.874;7.028;2023-04-28T06:11:58;100679.88;;;10.07;94.86
71504;BME280;59323;50.874;7.028;2023-04-28T06:14:24;100696.28;;;10.14;94.30
71504;BME280;59323;50.874;7.028;2023-04-28T06:16:49;100686.63;;;10.16;93.78
71504;BME280;59323;50.874;7.028;2023-04-28T06:19:22;100675.34;;;10.14;93.57
71504;BME280;59323;50.874;7.028;2023-04-28T06:21:48;100674.72;;;10.21;94.21
71504;BME280;59323;50.874;7.028;2023-04-28T06:24:17;100675.03;;;10.20;93.99
71504;BME280;59323;50.874;7.028;2023-04-28T06:26:46;100673.94;;;10.21;93.93
71504;BME280;59323;50.874;7.028;2023-04-28T06:29:12;100682.19;;;10.28;93.76
71504;BME280;59323;50.874;7.028;2023-04-28T06:31:43;100675.66;;;10.32;93.33
71504;BME280;59323;50.874;7.028;2023-04-28T06:34:10;100694.47;;;10.41;93.46
71504;BME280;59323;50.874;7.028;2023-04-28T06:36:38;100674.94;;;10.35;93.46
71504;BME280;59323;50.874;7.028;2023-04-28T06:39:04;100692.84;;;10.40;92.80
71504;BME280;59323;50.874;7.028;2023-04-28T06:41:29;100687.88;;;10.42;93.12
71504;BME280;59323;50.874;7.028;2023-04-28T06:43:57;100687.94;;;10.45;93.42
71504;BME280;59323;50.874;7.028;2023-04-28T06:46:22;100675.25;;;10.53;91.89
71504;BME280;59323;50.874;7.028;2023-04-28T06:48:47;100684.59;;;10.56;92.39
71504;BME280;59323;50.874;7.028;2023-04-28T06:51:13;100680.38;;;10.58;92.45
71504;BME280;59323;50.874;7.028;2023-04-28T06:53:51;100684.81;;;10.70;92.21
71504;BME280;59323;50.874;7.028;2023-04-28T06:56:54;100703.94;;;10.77;92.11
71504;BME280;59323;50.874;7.028;2023-04-28T07:06:52;100705.75;;;10.96;91.14
71504;BME280;59323;50.874;7.028;2023-04-28T07:09:36;100700.00;;;11.01;90.54
71504;BME280;59323;50.874;7.028;2023-04-28T07:12:02;100702.41;;;11.06;89.91
71504;BME280;59323;50.874;7.028;2023-04-28T07:14:28;100703.25;;;11.10;89.31
71504;BME280;59323;50.874;7.028;2023-04-28T07:16:54;100710.31;;;11.15;90.31
71504;BME280;59323;50.874;7.028;2023-04-28T07:19:19;100717.34;;;11.19;89.44
71504;BME280;59323;50.874;7.028;2023-04-28T07:21:44;100708.84;;;11.21;89.06
71504;BME280;59323;50.874;7.028;2023-04-28T07:24:10;100711.19;;;11.22;89.36
71504;BME280;59323;50.874;7.028;2023-04-28T07:26:35;100715.47;;;11.23;88.76
71504;BME280;59323;50.874;7.028;2023-04-28T07:29:01;100715.09;;;11.25;88.71
71504;BME280;59323;50.874;7.028;2023-04-28T07:31:26;100708.13;;;11.27;88.66
71504;BME280;59323;50.874;7.028;2023-04-28T07:33:53;100709.66;;;11.25;88.74
71504;BME280;59323;50.874;7.028;2023-04-28T07:36:18;100709.34;;;11.30;88.33
71504;BME280;59323;50.874;7.028;2023-04-28T07:38:43;100716.72;;;11.29;89.56
71504;BME280;59323;50.874;7.028;2023-04-28T07:41:09;100715.97;;;11.32;89.32
71504;BME280;59323;50.874;7.028;2023-04-28T07:43:34;100711.34;;;11.36;89.67
71504;BME280;59323;50.874;7.028;2023-04-28T07:45:59;100709.09;;;11.42;89.66
71504;BME280;59323;50.874;7.028;2023-04-28T07:48:25;100713.50;;;11.54;89.82
71504;BME280;59323;50.874;7.028;2023-04-28T07:50:52;100706.25;;;11.65;89.56
71504;BME280;59323;50.874;7.028;2023-04-28T07:53:17;100716.13;;;11.77;89.37
71504;BME280;59323;50.874;7.028;2023-04-28T07:55:42;100710.41;;;11.85;88.77
71504;BME280;59323;50.874;7.028;2023-04-28T07:58:09;100710.91;;;11.94;88.91
71504;BME280;59323;50.874;7.028;2023-04-28T08:00:34;100707.50;;;12.04;88.54
71504;BME280;59323;50.874;7.028;2023-04-28T08:03:00;100709.94;;;12.17;89.14
71504;BME280;59323;50.874;7.028;2023-04-28T08:05:25;100709.31;;;12.34;87.34
71504;BME280;59323;50.874;7.028;2023-04-28T08:07:50;100712.22;;;12.55;86.28
71504;BME280;59323;50.874;7.028;2023-04-28T08:10:16;100718.16;;;12.68;85.80
71504;BME280;59323;50.874;7.028;2023-04-28T08:12:41;100710.06;;;12.82;85.68
71504;BME280;59323;50.874;7.028;2023-04-28T08:15:08;100712.50;;;12.94;85.60
71504;BME280;59323;50.874;7.028;2023-04-28T08:17:34;100689.94;;;13.01;84.81
71504;BME280;59323;50.874;7.028;2023-04-28T08:19:59;100699.00;;;13.16;84.10
71504;BME280;59323;50.874;7.028;2023-04-28T08:22:24;100712.72;;;13.26;83.70
71504;BME280;59323;50.874;7.028;2023-04-28T08:24:50;100712.34;;;13.28;83.53
71504;BME280;59323;50.874;7.028;2023-04-28T08:27:15;100711.56;;;13.35;84.00
71504;BME280;59323;50.874;7.028;2023-04-28T08:29:40;100709.66;;;13.42;84.03
71504;BME280;59323;50.874;7.028;2023-04-28T08:32:06;100707.72;;;13.46;83.14
71504;BME280;59323;50.874;7.028;2023-04-28T08:34:32;100699.94;;;13.52;83.78
71504;BME280;59323;50.874;7.028;2023-04-28T08:36:57;100706.63;;;13.65;84.35
71504;BME280;59323;50.874;7.028;2023-04-28T08:39:24;100704.72;;;13.76;83.76
71504;BME280;59323;50.874;7.028;2023-04-28T08:41:51;100701.63;;;13.81;83.50
71504;BME280;59323;50.874;7.028;2023-04-28T08:44:16;100701.25;;;13.90;83.68
71504;BME280;59323;50.874;7.028;2023-04-28T08:46:43;100703.59;;;14.02;83.52
71504;BME280;59323;50.874;7.028;2023-04-28T08:49:14;100693.84;;;14.12;83.15
71504;BME280;59323;50.874;7.028;2023-04-28T08:51:49;100701.66;;;14.17;83.16
71504;BME280;59323;50.874;7.028;2023-04-28T08:54:14;100706.75;;;14.22;83.31
71504;BME280;59323;50.874;7.028;2023-04-28T08:56:45;100705.56;;;14.26;83.98
71504;BME280;59323;50.874;7.028;2023-04-28T08:59:11;100713.38;;;14.21;82.95
71504;BME280;59323;50.874;7.028;2023-04-28T09:01:37;100705.56;;;14.19;83.38
71504;BME280;59323;50.874;7.028;2023-04-28T09:04:03;100713.78;;;14.19;84.22
71504;BME280;59323;50.874;7.028;2023-04-28T09:06:35;100720.41;;;14.18;84.93
71504;BME280;59323;50.874;7.028;2023-04-28T09:09:21;100710.66;;;14.14;86.03
71504;BME280;59323;50.874;7.028;2023-04-28T09:11:58;100713.38;;;14.03;87.00
71504;BME280;59323;50.874;7.028;2023-04-28T09:14:25;100721.56;;;14.03;88.25
71504;BME280;59323;50.874;7.028;2023-04-28T09:16:51;100718.03;;;13.99;89.48
71504;BME280;59323;50.874;7.028;2023-04-28T09:19:17;100711.00;;;13.94;89.72
71504;BME280;59323;50.874;7.028;2023-04-28T09:26:59;100712.91;;;13.73;91.41
71504;BME280;59323;50.874;7.028;2023-04-28T09:29:26;100700.75;;;13.63;91.69
71504;BME280;59323;50.874;7.028;2023-04-28T09:31:52;100700.38;;;13.64;91.65
71504;BME280;59323;50.874;7.028;2023-04-28T09:34:19;100713.22;;;13.60;92.34
71504;BME280;59323;50.874;7.028;2023-04-28T09:36:45;100710.09;;;13.58;92.73
71504;BME280;59323;50.874;7.028;2023-04-28T09:39:10;100709.31;;;13.54;94.05
71504;BME280;59323;50.874;7.028;2023-04-28T09:44:16;100700.69;;;13.45;94.92
71504;BME280;59323;50.874;7.028;2023-04-28T09:46:44;100709.28;;;13.47;95.22
71504;BME280;59323;50.874;7.028;2023-04-28T09:49:10;100706.94;;;13.46;95.26
71504;BME280;59323;50.874;7.028;2023-04-28T09:51:36;100704.63;;;13.48;95.35
71504;BME280;59323;50.874;7.028;2023-04-28T09:54:02;100707.75;;;13.53;95.73
71504;BME280;59323;50.874;7.028;2023-04-28T09:56:29;100701.13;;;13.54;95.47
71504;BME280;59323;50.874;7.028;2023-04-28T09:58:59;100703.09;;;13.57;95.71
71504;BME280;59323;50.874;7.028;2023-04-28T10:01:27;100697.59;;;13.50;95.37
71504;BME280;59323;50.874;7.028;2023-04-28T10:03:55;100697.63;;;13.54;95.26
71504;BME280;59323;50.874;7.028;2023-04-28T10:06:22;100706.97;;;13.53;95.21
71504;BME280;59323;50.874;7.028;2023-04-28T10:08:49;100699.94;;;13.52;95.81
71504;BME280;59323;50.874;7.028;2023-04-28T10:11:15;100703.06;;;13.50;95.85
71504;BME280;59323;50.874;7.028;2023-04-28T10:13:42;100706.56;;;13.47;96.98
71504;BME280;59323;50.874;7.028;2023-04-28T10:16:09;100708.50;;;13.47;97.78
71504;BME280;59323;50.874;7.028;2023-04-28T10:18:35;100707.34;;;13.48;98.65
71504;BME280;59323;50.874;7.028;2023-04-28T10:21:02;100712.81;;;13.51;99.73
71504;BME280;59323;50.874;7.028;2023-04-28T10:23:55;100715.94;;;13.53;100.00
71504;BME280;59323;50.874;7.028;2023-04-28T10:29:22;100704.63;;;13.51;100.00
71504;BME280;59323;50.874;7.028;2023-04-28T10:32:20;100699.94;;;13.52;100.00
71504;BME280;59323;50.874;7.028;2023-04-28T10:34:47;100698.75;;;13.49;100.00
71504;BME280;59323;50.874;7.028;2023-04-28T10:37:13;100694.84;;;13.47;100.00
71504;BME280;59323;50.874;7.028;2023-04-28T10:39:40;100688.63;;;13.46;100.00
71504;BME280;59323;50.874;7.028;2023-04-28T10:45:09;100698.00;;;13.52;100.00
71504;BME280;59323;50.874;7.028;2023-04-28T10:48:00;100690.97;;;13.51;100.00
71504;BME280;59323;50.874;7.028;2023-04-28T10:50:30;100692.91;;;13.51;100.00
71504;BME280;59323;50.874;7.028;2023-04-28T10:52:56;100692.53;;;13.52;100.00
71504;BME280;59323;50.874;7.028;2023-04-28T10:55:32;100696.06;;;13.53;100.00
71504;BME280;59323;50.874;7.028;2023-04-28T11:00:42;100695.69;;;13.58;100.00
71504;BME280;59323;50.874;7.028;2023-04-28T11:03:37;100690.59;;;13.56;100.00
71504;BME280;59323;50.874;7.028;2023-04-28T11:06:26;100686.72;;;13.61;100.00
71504;BME280;59323;50.874;7.028;2023-04-28T11:11:32;100683.66;;;13.77;100.00
71504;BME280;59323;50.874;7.028;2023-04-28T11:16:56;100679.78;;;13.88;100.00
71504;BME280;59323;50.874;7.028;2023-04-28T11:22:03;100676.28;;;14.13;100.00
71504;BME280;59323;50.874;7.028;2023-04-28T11:24:29;100670.44;;;14.18;100.00
71504;BME280;59323;50.874;7.028;2023-04-28T11:26:59;100669.25;;;14.29;100.00
71504;BME280;59323;50.874;7.028;2023-04-28T11:29:38;100660.72;;;14.45;100.00
71504;BME280;59323;50.874;7.028;2023-04-28T11:32:05;100662.25;;;14.61;100.00
71504;BME280;59323;50.874;7.028;2023-04-28T11:34:31;100654.38;;;14.84;100.00
71504;BME280;59323;50.874;7.028;2023-04-28T11:36:57;100655.50;;;15.11;100.00
71504;BME280;59323;50.874;7.028;2023-04-28T11:39:30;100656.91;;;15.44;100.00
71504;BME280;59323;50.874;7.028;2023-04-28T11:41:57;100659.47;;;15.83;100.00
71504;BME280;59323;50.874;7.028;2023-04-28T11:44:26;100655.41;;;16.02;97.17
71504;BME280;59323;50.874;7.028;2023-04-28T11:46:54;100644.66;;;16.29;95.74
71504;BME280;59323;50.874;7.028;2023-04-28T11:49:44;100652.31;;;16.48;93.65
71504;BME280;59323;50.874;7.028;2023-04-28T11:52:11;100648.16;;;16.74;93.67
71504;BME280;59323;50.874;7.028;2023-04-28T11:54:37;100646.34;;;16.98;92.05
71504;BME280;59323;50.874;7.028;2023-04-28T11:57:03;100653.13;;;17.21;93.11
71504;BME280;59323;50.874;7.028;2023-04-28T11:59:31;100650.72;;;17.26;89.10
71504;BME280;59323;50.874;7.028;2023-04-28T12:02:05;100649.75;;;17.40;90.36
71504;BME280;59323;50.874;7.028;2023-04-28T12:04:38;100654.13;;;17.64;88.48
71504;BME280;59323;50.874;7.028;2023-04-28T12:07:08;100643.16;;;17.64;87.50
71504;BME280;59323;50.874;7.028;2023-04-28T12:09:44;100646.59;;;17.72;86.61
71504;BME280;59323;50.874;7.028;2023-04-28T12:12:12;100654.28;;;17.84;87.65
71504;BME280;59323;50.874;7.028;2023-04-28T12:14:58;100646.00;;;18.11;87.74
71504;BME280;59323;50.874;7.028;2023-04-28T12:17:30;100633.94;;;18.28;84.65
71504;BME280;59323;50.874;7.028;2023-04-28T12:19:57;100638.00;;;18.44;83.69
71504;BME280;59323;50.874;7.028;2023-04-28T12:22:24;100639.34;;;18.55;83.51
71504;BME280;59323;50.874;7.028;2023-04-28T12:27:27;100623.31;;;18.74;80.90
71504;BME280;59323;50.874;7.028;2023-04-28T12:29:53;100624.94;;;18.71;80.80
71504;BME280;59323;50.874;7.028;2023-04-28T12:32:36;100619.22;;;18.82;82.18
71504;BME280;59323;50.874;7.028;2023-04-28T12:35:02;100614.16;;;19.00;81.50
71504;BME280;59323;50.874;7.028;2023-04-28T12:37:29;100613.09;;;19.14;81.56
71504;BME280;59323;50.874;7.028;2023-04-28T12:39:55;100611.81;;;19.18;80.69
71504;BME280;59323;50.874;7.028;2023-04-28T12:42:20;100614.13;;;19.20;78.88
71504;BME280;59323;50.874;7.028;2023-04-28T12:44:47;100612.47;;;19.42;80.63
71504;BME280;59323;50.874;7.028;2023-04-28T12:47:14;100611.69;;;19.42;79.90
71504;BME280;59323;50.874;7.028;2023-04-28T12:49:42;100603.69;;;19.47;80.04
71504;BME280;59323;50.874;7.028;2023-04-28T12:52:07;100599.63;;;19.55;79.20
71504;BME280;59323;50.874;7.028;2023-04-28T12:54:32;100604.63;;;19.41;76.60
71504;BME280;59323;50.874;7.028;2023-04-28T12:56:58;100601.88;;;19.41;78.19
71504;BME280;59323;50.874;7.028;2023-04-28T12:59:23;100601.69;;;19.48;78.01
71504;BME280;59323;50.874;7.028;2023-04-28T13:01:49;100592.44;;;19.22;76.63
71504;BME280;59323;50.874;7.028;2023-04-28T13:04:15;100596.13;;;19.15;76.86
71504;BME280;59323;50.874;7.028;2023-04-28T13:06:41;100590.63;;;19.15;78.21
71504;BME280;59323;50.874;7.028;2023-04-28T13:09:11;100588.72;;;19.12;77.90
71504;BME280;59323;50.874;7.028;2023-04-28T13:11:38;100588.72;;;19.12;77.89
71504;BME280;59323;50.874;7.028;2023-04-28T13:14:03;100577.69;;;19.12;78.14
71504;BME280;59323;50.874;7.028;2023-04-28T13:16:29;100582.06;;;19.10;78.75
71504;BME280;59323;50.874;7.028;2023-04-28T13:18:55;100587.25;;;19.08;77.78
71504;BME280;59323;50.874;7.028;2023-04-28T13:21:22;100577.06;;;19.05;78.41
71504;BME280;59323;50.874;7.028;2023-04-28T13:23:48;100577.84;;;19.05;78.83
71504;BME280;59323;50.874;7.028;2023-04-28T13:26:14;100571.72;;;18.97;77.23
71504;BME280;59323;50.874;7.028;2023-04-28T13:28:39;100580.69;;;19.02;77.63
71504;BME280;59323;50.874;7.028;2023-04-28T13:31:05;100569.16;;;19.07;78.68
71504;BME280;59323;50.874;7.028;2023-04-28T13:33:30;100558.22;;;19.03;77.04
71504;BME280;59323;50.874;7.028;2023-04-28T13:35:57;100576.56;;;19.10;77.88
71504;BME280;59323;50.874;7.028;2023-04-28T13:38:23;100565.94;;;19.28;77.26
71504;BME280;59323;50.874;7.028;2023-04-28T13:40:48;100556.47;;;19.45;77.79
71504;BME280;59323;50.874;7.028;2023-04-28T13:43:14;100551.28;;;19.67;76.45
71504;BME280;59323;50.874;7.028;2023-04-28T13:45:39;100552.31;;;19.73;75.60
71504;BME280;59323;50.874;7.028;2023-04-28T13:48:04;100548.88;;;19.69;74.88
71504;BME280;59323;50.874;7.028;2023-04-28T13:50:30;100555.59;;;19.68;75.64
71504;BME280;59323;50.874;7.028;2023-04-28T13:52:55;100546.47;;;19.55;75.53
71504;BME280;59323;50.874;7.028;2023-04-28T13:55:21;100541.22;;;19.60;77.36
71504;BME280;59323;50.874;7.028;2023-04-28T13:57:55;100546.91;;;19.70;76.03
71504;BME280;59323;50.874;7.028;2023-04-28T14:00:21;100556.72;;;19.71;75.39
71504;BME280;59323;50.874;7.028;2023-04-28T14:02:48;100551.81;;;19.78;74.23
71504;BME280;59323;50.874;7.028;2023-04-28T14:05:14;100549.31;;;19.84;74.34
71504;BME280;59323;50.874;7.028;2023-04-28T14:07:43;100545.69;;;19.87;74.04